createdAt,value
2017-09-21T00:01:07.698Z,8.34
2017-09-21T00:03:35.125Z,8.20
2017-09-21T00:06:02.619Z,8.36
2017-09-21T00:08:30.065Z,8.59
2017-09-21T00:10:57.521Z,8.40
2017-09-21T00:13:24.966Z,8.25
2017-09-21T00:15:52.436Z,8.20
2017-09-21T00:18:20.074Z,8.20
2017-09-21T00:20:47.600Z,8.20
2017-09-21T00:23:15.037Z,8.13
2017-09-21T00:25:42.469Z,8.17
2017-09-21T00:28:09.940Z,7.93
2017-09-21T00:30:37.886Z,8.08
2017-09-21T00:33:05.345Z,8.12
2017-09-21T00:35:32.831Z,8.07
2017-09-21T00:38:00.297Z,7.89
2017-09-21T00:40:27.737Z,7.92
2017-09-21T00:42:55.239Z,8.04
2017-09-21T00:45:22.679Z,7.93
2017-09-21T00:47:50.148Z,8.10
2017-09-21T00:50:17.577Z,8.00
2017-09-21T00:52:45.039Z,8.03
2017-09-21T00:55:12.480Z,8.16
2017-09-21T00:57:39.947Z,8.04
2017-09-21T01:00:07.402Z,8.02
2017-09-21T01:02:34.856Z,7.98
2017-09-21T01:05:02.324Z,8.07
2017-09-21T01:07:29.893Z,8.04
2017-09-21T01:09:57.392Z,7.94
2017-09-21T01:12:24.873Z,8.01
2017-09-21T01:14:52.352Z,7.88
2017-09-21T01:17:19.907Z,7.85
2017-09-21T01:19:47.436Z,7.92
2017-09-21T01:22:14.896Z,7.91
2017-09-21T01:24:42.378Z,7.71
2017-09-21T01:27:09.855Z,7.81
2017-09-21T01:29:37.329Z,7.85
2017-09-21T01:32:04.793Z,7.67
2017-09-21T01:34:32.264Z,7.79
2017-09-21T01:36:59.785Z,7.53
2017-09-21T01:39:27.268Z,7.41
2017-09-21T01:41:54.745Z,7.39
2017-09-21T01:44:22.239Z,7.49
2017-09-21T01:46:49.709Z,7.55
2017-09-21T01:49:17.192Z,7.58
2017-09-21T01:51:44.636Z,7.46
2017-09-21T01:54:12.129Z,7.53
2017-09-21T01:56:39.629Z,7.48
2017-09-21T01:59:07.084Z,7.39
2017-09-21T02:01:34.648Z,7.24
2017-09-21T02:04:02.718Z,7.24
2017-09-21T02:06:30.241Z,7.29
2017-09-21T02:08:57.735Z,7.23
2017-09-21T02:11:25.297Z,7.12
2017-09-21T02:13:52.756Z,7.15
2017-09-21T02:16:20.234Z,7.23
2017-09-21T02:18:47.718Z,7.20
2017-09-21T02:21:15.518Z,7.05
2017-09-21T02:23:42.965Z,7.16
2017-09-21T02:26:10.417Z,7.23
2017-09-21T02:28:37.897Z,7.27
2017-09-21T02:31:05.366Z,7.66
2017-09-21T02:33:32.920Z,7.23
2017-09-21T02:36:00.383Z,7.09
2017-09-21T02:38:27.860Z,6.89
2017-09-21T02:40:55.309Z,6.98
2017-09-21T02:43:22.792Z,7.18
2017-09-21T02:45:50.250Z,7.16
2017-09-21T02:48:17.729Z,7.20
2017-09-21T02:50:45.213Z,7.07
2017-09-21T02:53:12.705Z,7.13
2017-09-21T02:55:40.167Z,7.15
2017-09-21T02:58:07.645Z,7.10
2017-09-21T03:00:35.108Z,7.09
2017-09-21T03:03:02.781Z,7.11
2017-09-21T03:05:30.269Z,7.13
2017-09-21T03:07:57.715Z,6.91
2017-09-21T03:10:25.193Z,6.64
2017-09-21T03:12:52.745Z,6.97
2017-09-21T03:15:20.215Z,6.89
2017-09-21T03:17:47.671Z,6.78
2017-09-21T03:20:15.196Z,6.78
2017-09-21T03:22:42.649Z,6.79
2017-09-21T03:25:10.113Z,6.81
2017-09-21T03:27:37.570Z,6.66
2017-09-21T03:30:05.042Z,6.55
2017-09-21T03:32:32.484Z,6.35
2017-09-21T03:34:59.960Z,6.69
2017-09-21T03:37:27.403Z,6.77
2017-09-21T03:39:54.898Z,6.98
2017-09-21T03:42:22.357Z,6.75
2017-09-21T03:44:49.875Z,6.74
2017-09-21T03:47:17.424Z,6.67
2017-09-21T03:49:45.128Z,6.60
2017-09-21T03:52:12.595Z,6.37
2017-09-21T03:54:40.084Z,6.57
2017-09-21T03:57:07.565Z,6.49
2017-09-21T03:59:35.029Z,6.53
2017-09-21T04:02:02.537Z,6.54
2017-09-21T04:04:29.997Z,6.54
2017-09-21T04:06:57.485Z,6.44
2017-09-21T04:09:24.945Z,6.57
2017-09-21T04:11:52.427Z,6.53
2017-09-21T04:14:19.880Z,6.51
2017-09-21T04:16:47.385Z,6.49
2017-09-21T04:19:14.857Z,6.45
2017-09-21T04:21:42.342Z,6.27
2017-09-21T04:24:09.827Z,6.28
2017-09-21T04:26:37.315Z,6.30
2017-09-21T04:29:04.780Z,6.26
2017-09-21T04:31:32.252Z,6.51
2017-09-21T04:33:59.721Z,6.75
2017-09-21T04:36:28.183Z,6.69
2017-09-21T04:38:55.649Z,6.75
2017-09-21T04:41:23.137Z,6.67
2017-09-21T04:43:50.608Z,6.97
2017-09-21T04:46:18.125Z,6.88
2017-09-21T04:48:45.662Z,6.95
2017-09-21T04:51:13.127Z,6.96
2017-09-21T04:53:40.709Z,6.69
2017-09-21T04:56:08.187Z,6.82
2017-09-21T04:58:35.772Z,6.84
2017-09-21T05:01:03.245Z,6.89
2017-09-21T05:03:30.725Z,6.89
2017-09-21T05:05:58.198Z,7.21
2017-09-21T05:08:25.737Z,7.05
2017-09-21T05:10:53.301Z,7.10
2017-09-21T05:13:20.792Z,7.27
2017-09-21T05:15:48.248Z,7.16
2017-09-21T05:18:15.749Z,7.32
2017-09-21T05:20:43.213Z,7.20
2017-09-21T05:23:11.828Z,7.25
2017-09-21T05:25:41.511Z,7.33
2017-09-21T05:28:11.546Z,7.34
2017-09-21T05:30:39.001Z,7.34
2017-09-21T05:33:06.508Z,7.43
2017-09-21T05:35:34.390Z,7.35
2017-09-21T05:38:01.912Z,7.32
2017-09-21T05:40:29.409Z,7.48
2017-09-21T05:42:56.873Z,7.49
2017-09-21T05:45:24.361Z,7.51
2017-09-21T05:47:51.905Z,7.44
2017-09-21T05:50:19.392Z,7.31
2017-09-21T05:52:46.852Z,7.33
2017-09-21T05:55:14.389Z,7.24
2017-09-21T05:57:41.843Z,7.29
2017-09-21T06:00:09.326Z,7.32
2017-09-21T06:02:36.811Z,7.56
2017-09-21T06:05:04.305Z,7.49
2017-09-21T06:07:31.758Z,7.47
2017-09-21T06:09:59.245Z,7.61
2017-09-21T06:12:26.728Z,7.63
2017-09-21T06:14:54.233Z,8.15
2017-09-21T06:17:21.692Z,8.18
2017-09-21T06:19:49.150Z,8.73
2017-09-21T06:22:16.705Z,8.77
2017-09-21T06:24:44.165Z,8.23
2017-09-21T06:27:11.667Z,8.29
2017-09-21T06:29:39.125Z,8.20
2017-09-21T06:32:06.609Z,8.49
2017-09-21T06:34:34.121Z,8.16
2017-09-21T06:37:01.621Z,8.05
2017-09-21T06:39:29.091Z,8.08
2017-09-21T06:41:56.581Z,8.51
2017-09-21T06:44:24.044Z,8.15
2017-09-21T06:46:51.740Z,8.71
2017-09-21T06:49:19.258Z,8.89
2017-09-21T06:51:46.744Z,8.72
2017-09-21T06:54:14.221Z,8.72
2017-09-21T06:56:41.706Z,8.58
2017-09-21T06:59:09.180Z,9.09
2017-09-21T07:01:36.651Z,8.99
2017-09-21T07:04:04.133Z,8.67
2017-09-21T07:06:31.632Z,8.90
2017-09-21T07:08:59.104Z,9.07
2017-09-21T07:11:26.657Z,9.38
2017-09-21T07:13:54.153Z,9.18
2017-09-21T07:16:21.672Z,8.92
2017-09-21T07:18:49.145Z,9.06
2017-09-21T07:21:16.626Z,9.24
2017-09-21T07:23:44.093Z,9.53
2017-09-21T07:26:11.589Z,9.35
2017-09-21T07:28:39.039Z,9.25
2017-09-21T07:31:06.620Z,9.05
2017-09-21T07:33:34.078Z,9.13
2017-09-21T07:36:01.632Z,9.71
2017-09-21T07:38:29.096Z,9.45
2017-09-21T07:40:56.598Z,9.17
2017-09-21T07:43:24.053Z,9.27
2017-09-21T07:45:51.536Z,9.33
2017-09-21T07:48:19.002Z,9.23
2017-09-21T07:50:46.485Z,9.55
2017-09-21T07:53:13.950Z,9.49
2017-09-21T07:55:41.449Z,9.30
2017-09-21T07:58:09.313Z,9.20
2017-09-21T08:00:36.773Z,9.47
2017-09-21T08:03:04.273Z,9.93
2017-09-21T08:05:31.733Z,10.16
2017-09-21T08:07:59.212Z,9.57
2017-09-21T08:10:26.672Z,9.45
2017-09-21T08:12:54.147Z,9.72
2017-09-21T08:15:21.609Z,10.06
2017-09-21T08:17:49.079Z,9.94
2017-09-21T08:20:16.597Z,10.38
2017-09-21T08:22:44.551Z,9.82
2017-09-21T08:25:12.095Z,9.84
2017-09-21T08:27:39.837Z,9.91
2017-09-21T08:30:07.353Z,10.11
2017-09-21T08:32:34.864Z,10.09
2017-09-21T08:35:02.579Z,10.12
2017-09-21T08:37:30.192Z,10.45
2017-09-21T08:39:57.765Z,10.79
2017-09-21T08:42:25.305Z,10.90
2017-09-21T08:44:53.122Z,10.98
2017-09-21T08:47:20.987Z,11.06
2017-09-21T08:49:48.957Z,10.62
2017-09-21T08:52:16.619Z,10.81
2017-09-21T08:54:44.603Z,11.10
2017-09-21T08:57:12.555Z,10.62
2017-09-21T08:59:40.522Z,10.75
2017-09-21T09:02:08.494Z,10.81
2017-09-21T09:04:36.479Z,11.09
2017-09-21T09:07:04.427Z,10.98
2017-09-21T09:09:32.398Z,10.97
2017-09-21T09:12:00.572Z,11.19
2017-09-21T09:14:28.334Z,11.34
2017-09-21T09:16:56.352Z,11.62
2017-09-21T09:19:23.861Z,11.74
2017-09-21T09:21:51.841Z,12.26
2017-09-21T09:24:20.034Z,12.40
2017-09-21T09:26:48.149Z,12.60
2017-09-21T09:29:15.940Z,12.47
2017-09-21T09:31:43.768Z,12.54
2017-09-21T09:34:11.673Z,12.64
2017-09-21T09:36:39.800Z,12.41
2017-09-21T09:39:07.814Z,12.68
2017-09-21T09:41:35.782Z,12.40
2017-09-21T09:44:03.621Z,12.54
2017-09-21T09:46:31.559Z,12.80
2017-09-21T09:48:59.484Z,12.60
2017-09-21T09:51:27.665Z,12.82
2017-09-21T09:53:55.255Z,12.95
2017-09-21T09:56:23.059Z,13.33
2017-09-21T09:58:51.664Z,13.13
2017-09-21T10:01:19.592Z,13.51
2017-09-21T10:03:47.533Z,14.12
2017-09-21T10:06:15.371Z,14.38
2017-09-21T10:08:42.900Z,14.78
2017-09-21T10:11:10.389Z,14.04
2017-09-21T10:13:37.900Z,14.09
2017-09-21T10:16:05.374Z,14.12
2017-09-21T10:18:32.908Z,14.08
2017-09-21T10:21:00.381Z,14.10
2017-09-21T10:23:27.856Z,14.21
2017-09-21T10:25:55.324Z,14.74
2017-09-21T10:28:22.850Z,15.10
2017-09-21T10:30:50.337Z,15.19
2017-09-21T10:33:17.822Z,15.52
2017-09-21T10:35:45.293Z,15.02
2017-09-21T10:38:12.794Z,15.41
2017-09-21T10:40:40.260Z,15.23
2017-09-21T10:43:07.725Z,15.62
2017-09-21T10:45:35.217Z,15.54
2017-09-21T10:48:02.699Z,15.67
2017-09-21T10:50:30.195Z,15.76
2017-09-21T10:52:57.704Z,15.99
2017-09-21T10:55:25.272Z,15.96
2017-09-21T10:57:52.752Z,15.65
2017-09-21T11:00:20.240Z,15.84
2017-09-21T11:02:47.721Z,15.98
2017-09-21T11:05:15.305Z,16.13
2017-09-21T11:07:42.780Z,16.11
2017-09-21T11:10:10.306Z,16.15
2017-09-21T11:12:37.769Z,16.21
2017-09-21T11:15:05.237Z,16.46
2017-09-21T11:17:32.831Z,16.82
2017-09-21T11:20:00.341Z,17.09
2017-09-21T11:22:27.824Z,16.38
2017-09-21T11:24:55.311Z,16.59
2017-09-21T11:27:22.805Z,16.81
2017-09-21T11:29:50.281Z,16.87
2017-09-21T11:32:17.775Z,16.90
2017-09-21T11:34:45.288Z,17.31
2017-09-21T11:37:12.801Z,17.06
2017-09-21T11:39:40.264Z,17.00
2017-09-21T11:42:07.749Z,16.91
2017-09-21T11:44:35.230Z,16.57
2017-09-21T11:47:02.768Z,16.62
2017-09-21T11:49:30.241Z,17.05
2017-09-21T11:51:57.769Z,16.82
2017-09-21T11:54:25.297Z,16.96
2017-09-21T11:56:52.764Z,16.75
2017-09-21T11:59:20.245Z,16.58
2017-09-21T12:01:47.701Z,16.62
2017-09-21T12:04:15.193Z,17.02
2017-09-21T12:06:42.671Z,16.99
2017-09-21T12:09:10.148Z,17.03
2017-09-21T12:11:37.750Z,17.16
2017-09-21T12:14:05.312Z,16.95
2017-09-21T12:16:32.777Z,17.16
2017-09-21T12:19:00.268Z,17.43
2017-09-21T12:21:27.729Z,17.46
2017-09-21T12:23:55.236Z,17.45
2017-09-21T12:26:22.695Z,17.71
2017-09-21T12:28:50.197Z,17.45
2017-09-21T12:31:17.657Z,17.83
2017-09-21T12:33:45.120Z,17.85
2017-09-21T12:36:12.670Z,17.57
2017-09-21T12:38:40.840Z,17.20
2017-09-21T12:41:09.852Z,17.46
2017-09-21T12:43:37.598Z,17.79
2017-09-21T12:46:05.566Z,17.68
2017-09-21T12:48:33.492Z,17.76
2017-09-21T12:51:01.463Z,17.50
2017-09-21T12:53:29.354Z,17.44
2017-09-21T12:55:57.396Z,17.54
2017-09-21T12:58:25.204Z,17.70
2017-09-21T13:00:53.070Z,17.76
2017-09-21T13:03:21.038Z,17.73
2017-09-21T13:05:48.689Z,18.04
2017-09-21T13:08:16.769Z,18.08
2017-09-21T13:10:44.636Z,17.94
2017-09-21T13:13:13.042Z,17.83
2017-09-21T13:15:40.881Z,18.00
2017-09-21T13:18:08.747Z,17.54
2017-09-21T13:20:36.406Z,17.80
2017-09-21T13:23:03.917Z,17.93
2017-09-21T13:25:31.828Z,17.97
2017-09-21T13:27:59.667Z,17.79
2017-09-21T13:30:27.512Z,17.88
2017-09-21T13:32:55.328Z,17.85
2017-09-21T13:35:22.990Z,18.04
2017-09-21T13:37:51.060Z,18.09
2017-09-21T13:40:19.029Z,18.28
2017-09-21T13:42:46.868Z,18.20
2017-09-21T13:45:14.765Z,18.20
2017-09-21T13:47:42.319Z,18.34
2017-09-21T13:50:10.293Z,18.31
2017-09-21T13:52:38.137Z,18.38
2017-09-21T13:55:05.903Z,18.31
2017-09-21T13:57:33.580Z,18.36
2017-09-21T14:00:01.445Z,18.46
2017-09-21T14:02:29.299Z,18.29
2017-09-21T14:04:56.819Z,18.06
2017-09-21T14:07:24.288Z,18.16
2017-09-21T14:09:52.705Z,18.06
2017-09-21T14:12:20.173Z,18.44
2017-09-21T14:14:47.662Z,18.63
2017-09-21T14:17:15.123Z,18.27
2017-09-21T14:19:43.353Z,18.39
2017-09-21T14:22:11.703Z,18.44
2017-09-21T14:24:39.695Z,18.45
2017-09-21T14:27:07.871Z,18.48
2017-09-21T14:29:36.043Z,18.63
2017-09-21T14:32:04.360Z,18.92
2017-09-21T14:34:32.081Z,18.88
2017-09-21T14:37:00.358Z,18.96
2017-09-21T14:39:28.861Z,18.74
2017-09-21T14:41:56.989Z,18.56
2017-09-21T14:44:25.537Z,18.64
2017-09-21T14:46:53.900Z,18.41
2017-09-21T14:49:22.258Z,18.60
2017-09-21T14:51:50.522Z,18.73
2017-09-21T14:54:18.906Z,18.79
2017-09-21T14:56:46.787Z,18.69
2017-09-21T14:59:14.995Z,18.59
2017-09-21T15:01:43.226Z,18.59
2017-09-21T15:04:11.389Z,18.54
2017-09-21T15:06:39.001Z,18.67
2017-09-21T15:09:07.675Z,18.66
2017-09-21T15:11:35.256Z,18.62
2017-09-21T15:14:02.745Z,18.51
2017-09-21T15:16:30.208Z,18.45
2017-09-21T15:18:57.709Z,18.60
2017-09-21T15:21:25.177Z,18.45
2017-09-21T15:23:52.665Z,18.59
2017-09-21T15:26:20.208Z,18.50
2017-09-21T15:28:47.689Z,18.59
2017-09-21T15:31:15.182Z,18.75
2017-09-21T15:33:43.084Z,18.70
2017-09-21T15:36:10.560Z,18.59
2017-09-21T15:38:38.052Z,18.72
2017-09-21T15:41:05.515Z,18.54
2017-09-21T15:43:33.032Z,18.47
2017-09-21T15:46:00.513Z,18.40
2017-09-21T15:48:28.007Z,18.32
2017-09-21T15:50:55.501Z,18.26
2017-09-21T15:53:23.064Z,18.32
2017-09-21T15:55:50.601Z,18.33
2017-09-21T15:58:18.083Z,18.28
2017-09-21T16:00:45.572Z,18.29
2017-09-21T16:03:13.049Z,18.23
2017-09-21T16:05:40.550Z,18.20
2017-09-21T16:08:08.037Z,18.25
2017-09-21T16:10:35.969Z,18.21
2017-09-21T16:13:03.474Z,18.28
2017-09-21T16:15:30.974Z,18.09
2017-09-21T16:17:58.469Z,17.96
2017-09-21T16:20:25.980Z,17.87
2017-09-21T16:22:53.465Z,17.79
2017-09-21T16:25:20.960Z,17.89
2017-09-21T16:27:48.457Z,17.79
2017-09-21T16:30:15.929Z,17.62
2017-09-21T16:32:43.490Z,17.52
2017-09-21T16:35:11.028Z,17.36
2017-09-21T16:37:38.504Z,17.26
2017-09-21T16:40:06.037Z,17.14
2017-09-21T16:42:33.600Z,17.25
2017-09-21T16:45:01.112Z,16.91
2017-09-21T16:47:28.593Z,16.93
2017-09-21T16:49:57.042Z,16.73
2017-09-21T16:52:24.520Z,16.61
2017-09-21T16:54:51.986Z,16.64
2017-09-21T16:57:19.511Z,16.61
2017-09-21T16:59:46.987Z,16.58
2017-09-21T17:02:14.460Z,16.32
2017-09-21T17:04:41.934Z,16.19
2017-09-21T17:07:09.424Z,16.09
2017-09-21T17:09:36.889Z,15.84
2017-09-21T17:12:04.361Z,15.75
2017-09-21T17:14:31.842Z,15.80
2017-09-21T17:16:59.323Z,15.79
2017-09-21T17:19:26.878Z,15.71
2017-09-21T17:21:54.373Z,15.65
2017-09-21T17:24:21.834Z,15.54
2017-09-21T17:26:49.317Z,15.50
2017-09-21T17:29:16.783Z,15.37
2017-09-21T17:31:44.278Z,15.35
2017-09-21T17:34:11.833Z,15.21
2017-09-21T17:36:39.325Z,15.28
2017-09-21T17:39:06.778Z,15.06
2017-09-21T17:41:34.270Z,14.99
2017-09-21T17:44:01.729Z,14.95
2017-09-21T17:46:34.993Z,14.87
2017-09-21T17:49:02.453Z,14.87
2017-09-21T17:51:29.961Z,15.13
2017-09-21T17:53:57.450Z,14.94
2017-09-21T17:56:25.017Z,14.73
2017-09-21T17:58:52.517Z,14.60
2017-09-21T18:01:19.974Z,14.37
2017-09-21T18:03:47.469Z,14.38
2017-09-21T18:06:14.995Z,14.32
2017-09-21T18:08:42.474Z,14.21
2017-09-21T18:11:10.024Z,14.24
2017-09-21T18:13:37.496Z,14.01
2017-09-21T18:16:04.952Z,14.09
2017-09-21T18:18:32.493Z,13.98
2017-09-21T18:20:59.952Z,13.95
2017-09-21T18:23:27.436Z,13.96
2017-09-21T18:25:54.923Z,13.73
2017-09-21T18:28:22.418Z,13.75
2017-09-21T18:30:49.880Z,13.86
2017-09-21T18:33:17.385Z,13.98
2017-09-21T18:35:44.844Z,13.92
2017-09-21T18:38:12.337Z,13.89
2017-09-21T18:40:39.814Z,14.01
2017-09-21T18:43:07.292Z,13.87
2017-09-21T18:45:34.779Z,14.42
2017-09-21T18:48:02.300Z,14.06
2017-09-21T18:50:29.769Z,14.04
2017-09-21T18:52:57.256Z,13.79
2017-09-21T18:55:24.709Z,13.64
2017-09-21T18:57:52.245Z,13.34
2017-09-21T19:00:19.752Z,13.34
2017-09-21T19:02:47.233Z,13.33
2017-09-21T19:05:14.713Z,13.24
2017-09-21T19:07:42.175Z,13.08
2017-09-21T19:10:09.668Z,12.96
2017-09-21T19:12:37.159Z,12.73
2017-09-21T19:15:04.640Z,12.68
2017-09-21T19:17:32.102Z,12.57
2017-09-21T19:20:00.357Z,12.47
2017-09-21T19:22:27.888Z,12.51
2017-09-21T19:24:55.373Z,12.38
2017-09-21T19:27:22.851Z,12.40
2017-09-21T19:29:50.340Z,12.39
2017-09-21T19:32:17.804Z,12.30
2017-09-21T19:34:45.287Z,12.20
2017-09-21T19:37:12.742Z,12.14
2017-09-21T19:39:40.233Z,12.09
2017-09-21T19:42:07.776Z,12.08
2017-09-21T19:44:35.295Z,12.03
2017-09-21T19:47:02.761Z,11.75
2017-09-21T19:49:30.322Z,11.93
2017-09-21T19:51:57.809Z,11.83
2017-09-21T19:54:25.341Z,11.78
2017-09-21T19:56:52.833Z,11.75
2017-09-21T19:59:20.290Z,11.79
2017-09-21T20:01:47.767Z,11.78
2017-09-21T20:04:15.221Z,11.71
2017-09-21T20:06:42.701Z,11.74
2017-09-21T20:09:10.187Z,11.54
2017-09-21T20:11:37.678Z,11.60
2017-09-21T20:14:05.173Z,11.48
2017-09-21T20:16:32.657Z,11.46
2017-09-21T20:19:00.209Z,11.35
2017-09-21T20:21:27.679Z,11.18
2017-09-21T20:23:55.176Z,11.27
2017-09-21T20:26:22.642Z,11.28
2017-09-21T20:28:50.132Z,11.28
2017-09-21T20:31:17.616Z,11.19
2017-09-21T20:33:45.096Z,10.93
2017-09-21T20:36:12.558Z,10.87
2017-09-21T20:38:40.045Z,10.84
2017-09-21T20:41:07.505Z,11.00
2017-09-21T20:43:34.996Z,11.06
2017-09-21T20:46:02.471Z,11.00
2017-09-21T20:48:29.967Z,11.02
2017-09-21T20:50:57.430Z,10.86
2017-09-21T20:53:25.013Z,10.86
2017-09-21T20:55:52.485Z,10.85
2017-09-21T20:58:19.949Z,10.75
2017-09-21T21:00:47.486Z,10.85
2017-09-21T21:03:14.940Z,10.83
2017-09-21T21:05:42.429Z,10.66
2017-09-21T21:08:09.917Z,10.65
2017-09-21T21:10:37.403Z,10.73
2017-09-21T21:13:04.969Z,10.48
2017-09-21T21:15:32.452Z,10.60
2017-09-21T21:17:59.917Z,10.36
2017-09-21T21:20:27.405Z,10.40
2017-09-21T21:22:54.873Z,10.38
2017-09-21T21:25:22.415Z,10.40
2017-09-21T21:27:49.905Z,10.42
2017-09-21T21:30:17.432Z,10.35
2017-09-21T21:32:44.897Z,10.38
2017-09-21T21:35:12.394Z,10.12
2017-09-21T21:37:39.869Z,10.11
2017-09-21T21:40:07.341Z,10.19
2017-09-21T21:42:34.844Z,10.07
2017-09-21T21:45:02.296Z,10.07
2017-09-21T21:47:29.795Z,10.09
2017-09-21T21:49:57.275Z,10.16
2017-09-21T21:52:24.749Z,9.86
2017-09-21T21:54:52.232Z,10.17
2017-09-21T21:57:19.709Z,9.97
2017-09-21T21:59:47.185Z,9.99
2017-09-21T22:02:14.665Z,9.90
2017-09-21T22:04:42.160Z,9.71
2017-09-21T22:07:09.636Z,9.59
2017-09-21T22:09:37.113Z,9.71
2017-09-21T22:12:04.574Z,9.57
2017-09-21T22:14:32.049Z,9.69
2017-09-21T22:16:59.524Z,9.57
2017-09-21T22:19:27.032Z,9.52
2017-09-21T22:21:54.501Z,9.64
2017-09-21T22:24:21.992Z,9.53
2017-09-21T22:26:49.462Z,9.50
2017-09-21T22:29:16.912Z,9.54
2017-09-21T22:31:44.390Z,9.36
2017-09-21T22:34:11.968Z,9.32
2017-09-21T22:36:39.450Z,9.42
2017-09-21T22:39:06.933Z,9.53
2017-09-21T22:41:34.413Z,9.46
2017-09-21T22:44:01.897Z,9.49
2017-09-21T22:46:29.418Z,9.43
2017-09-21T22:48:56.875Z,9.48
2017-09-21T22:51:24.448Z,9.49
2017-09-21T22:53:51.901Z,9.39
2017-09-21T22:56:19.378Z,9.39
2017-09-21T22:58:46.846Z,9.34
2017-09-21T23:01:14.360Z,9.33
2017-09-21T23:03:41.817Z,9.38
2017-09-21T23:06:09.277Z,9.37
2017-09-21T23:08:36.751Z,9.32
2017-09-21T23:11:04.254Z,9.28
2017-09-21T23:13:31.739Z,9.27
2017-09-21T23:15:59.205Z,9.11
2017-09-21T23:18:26.713Z,8.97
2017-09-21T23:20:54.179Z,9.02
2017-09-21T23:23:21.699Z,8.94
2017-09-21T23:25:49.155Z,8.98
2017-09-21T23:28:16.685Z,8.93
2017-09-21T23:30:44.153Z,8.95
2017-09-21T23:33:11.614Z,8.80
2017-09-21T23:35:39.088Z,8.76
2017-09-21T23:38:06.544Z,8.68
2017-09-21T23:40:34.105Z,8.76
2017-09-21T23:43:01.598Z,8.65
2017-09-21T23:45:29.084Z,8.59
2017-09-21T23:47:56.532Z,8.47
2017-09-21T23:50:24.026Z,8.61
2017-09-21T23:52:51.589Z,8.63
2017-09-21T23:55:19.077Z,8.63
2017-09-21T23:57:46.544Z,8.63
